sensor_id;sensor_type;location;lat;lon;timestamp;pressure;altitude;pressure_sealevel;temperature;humidity
41703;BME280;861;48.808;9.006;2023-09-19T00:00:48;96726.69;;;18.44;81.79
41703;BME280;861;48.808;9.006;2023-09-19T00:03:15;96719.47;;;18.59;81.00
41703;BME280;861;48.808;9.006;2023-09-19T00:05:42;96712.19;;;18.65;80.58
41703;BME280;861;48.808;9.006;2023-09-19T00:08:13;96724.59;;;18.48;81.50
41703;BME280;861;48.808;9.006;2023-09-19T00:10:40;96722.34;;;18.55;81.74
41703;BME280;861;48.808;9.006;2023-09-19T00:13:08;96723.03;;;18.59;81.27
41703;BME280;861;48.808;9.006;2023-09-19T00:15:45;96734.50;;;18.58;81.55
41703;BME280;861;48.808;9.006;2023-09-19T00:18:15;96731.25;;;18.72;80.53
41703;BME280;861;48.808;9.006;2023-09-19T00:20:45;96739.50;;;18.84;80.24
41703;BME280;861;48.808;9.006;2023-09-19T00:23:15;96737.91;;;18.49;81.56
41703;BME280;861;48.808;9.006;2023-09-19T00:25:42;96731.75;;;18.45;82.05
41703;BME280;861;48.808;9.006;2023-09-19T00:28:09;96739.25;;;18.45;82.07
41703;BME280;861;48.808;9.006;2023-09-19T00:30:36;96740.13;;;18.54;81.79
41703;BME280;861;48.808;9.006;2023-09-19T00:33:04;96736.38;;;18.48;82.20
41703;BME280;861;48.808;9.006;2023-09-19T00:35:33;96746.75;;;18.44;82.16
41703;BME280;861;48.808;9.006;2023-09-19T00:38:00;96741.47;;;18.50;81.94
41703;BME280;861;48.808;9.006;2023-09-19T00:40:27;96742.00;;;18.32;83.09
41703;BME280;861;48.808;9.006;2023-09-19T00:42:59;96746.84;;;18.53;81.73
41703;BME280;861;48.808;9.006;2023-09-19T00:45:26;96752.78;;;18.64;80.84
41703;BME280;861;48.808;9.006;2023-09-19T00:47:55;96754.41;;;18.74;80.12
41703;BME280;861;48.808;9.006;2023-09-19T00:50:27;96761.19;;;18.61;81.06
41703;BME280;861;48.808;9.006;2023-09-19T00:52:55;96765.03;;;18.63;81.10
41703;BME280;861;48.808;9.006;2023-09-19T00:55:25;96769.44;;;18.73;80.55
41703;BME280;861;48.808;9.006;2023-09-19T00:57:52;96757.75;;;18.57;81.45
41703;BME280;861;48.808;9.006;2023-09-19T01:00:22;96760.31;;;18.51;81.41
41703;BME280;861;48.808;9.006;2023-09-19T01:02:50;96765.69;;;18.67;80.73
41703;BME280;861;48.808;9.006;2023-09-19T01:05:17;96767.66;;;18.79;80.04
41703;BME280;861;48.808;9.006;2023-09-19T01:07:45;96775.41;;;18.72;80.19
41703;BME280;861;48.808;9.006;2023-09-19T01:10:17;96763.53;;;18.50;80.94
41703;BME280;861;48.808;9.006;2023-09-19T01:16:36;96764.72;;;18.49;81.25
41703;BME280;861;48.808;9.006;2023-09-19T01:19:41;96777.28;;;18.62;81.06
41703;BME280;861;48.808;9.006;2023-09-19T01:22:39;96768.25;;;18.49;80.91
41703;BME280;861;48.808;9.006;2023-09-19T01:29:08;96782.81;;;18.37;81.81
41703;BME280;861;48.808;9.006;2023-09-19T01:32:04;96790.22;;;18.40;81.29
41703;BME280;861;48.808;9.006;2023-09-19T01:34:54;96789.63;;;18.20;82.67
41703;BME280;861;48.808;9.006;2023-09-19T01:37:23;96802.44;;;18.39;81.69
41703;BME280;861;48.808;9.006;2023-09-19T01:40:00;96795.81;;;18.37;81.23
41703;BME280;861;48.808;9.006;2023-09-19T01:43:17;96796.94;;;18.39;81.04
41703;BME280;861;48.808;9.006;2023-09-19T01:46:08;96791.63;;;18.32;81.80
41703;BME280;861;48.808;9.006;2023-09-19T01:48:56;96797.13;;;18.32;81.42
41703;BME280;861;48.808;9.006;2023-09-19T01:52:02;96791.41;;;18.26;81.66
41703;BME280;861;48.808;9.006;2023-09-19T01:54:52;96802.22;;;18.33;81.47
41703;BME280;861;48.808;9.006;2023-09-19T01:57:35;96803.75;;;18.34;81.35
41703;BME280;861;48.808;9.006;2023-09-19T02:00:11;96802.66;;;18.32;81.37
41703;BME280;861;48.808;9.006;2023-09-19T02:02:47;96805.63;;;18.25;81.82
41703;BME280;861;48.808;9.006;2023-09-19T02:05:23;96809.50;;;18.27;81.29
41703;BME280;861;48.808;9.006;2023-09-19T02:07:52;96813.34;;;18.17;81.50
41703;BME280;861;48.808;9.006;2023-09-19T02:10:20;96809.34;;;18.18;81.04
41703;BME280;861;48.808;9.006;2023-09-19T02:12:46;96810.91;;;18.07;81.81
41703;BME280;861;48.808;9.006;2023-09-19T02:15:13;96812.44;;;18.08;82.18
41703;BME280;861;48.808;9.006;2023-09-19T02:17:43;96812.34;;;18.11;81.88
41703;BME280;861;48.808;9.006;2023-09-19T02:20:12;96803.84;;;18.18;81.24
41703;BME280;861;48.808;9.006;2023-09-19T02:22:39;96815.22;;;18.20;81.54
41703;BME280;861;48.808;9.006;2023-09-19T02:25:06;96811.38;;;18.30;80.73
41703;BME280;861;48.808;9.006;2023-09-19T02:27:33;96813.44;;;18.14;81.92
41703;BME280;861;48.808;9.006;2023-09-19T02:30:31;96816.34;;;18.23;81.15
41703;BME280;861;48.808;9.006;2023-09-19T02:33:00;96821.50;;;18.08;81.64
41703;BME280;861;48.808;9.006;2023-09-19T02:35:30;96818.06;;;18.04;81.65
41703;BME280;861;48.808;9.006;2023-09-19T02:38:01;96820.38;;;18.31;80.19
41703;BME280;861;48.808;9.006;2023-09-19T02:40:28;96822.06;;;18.28;80.67
41703;BME280;861;48.808;9.006;2023-09-19T02:42:56;96823.47;;;18.20;80.78
41703;BME280;861;48.808;9.006;2023-09-19T02:45:25;96826.31;;;18.04;81.38
41703;BME280;861;48.808;9.006;2023-09-19T02:47:52;96824.69;;;18.19;80.93
41703;BME280;861;48.808;9.006;2023-09-19T02:50:18;96831.41;;;18.18;80.99
41703;BME280;861;48.808;9.006;2023-09-19T02:52:47;96833.97;;;18.13;81.43
41703;BME280;861;48.808;9.006;2023-09-19T02:55:18;96837.38;;;18.29;80.17
41703;BME280;861;48.808;9.006;2023-09-19T02:57:54;96833.63;;;18.23;80.68
41703;BME280;861;48.808;9.006;2023-09-19T03:00:22;96843.75;;;18.14;81.15
41703;BME280;861;48.808;9.006;2023-09-19T03:02:56;96835.19;;;18.12;81.27
41703;BME280;861;48.808;9.006;2023-09-19T03:05:24;96835.63;;;18.23;81.38
41703;BME280;861;48.808;9.006;2023-09-19T03:07:51;96839.81;;;18.15;80.99
41703;BME280;861;48.808;9.006;2023-09-19T03:10:20;96844.56;;;18.27;80.60
41703;BME280;861;48.808;9.006;2023-09-19T03:12:48;96850.16;;;18.23;80.73
41703;BME280;861;48.808;9.006;2023-09-19T03:15:17;96842.13;;;18.29;80.30
41703;BME280;861;48.808;9.006;2023-09-19T03:17:46;96849.19;;;18.30;80.92
41703;BME280;861;48.808;9.006;2023-09-19T03:20:15;96853.81;;;18.33;80.17
41703;BME280;861;48.808;9.006;2023-09-19T03:22:45;96850.84;;;18.15;81.19
41703;BME280;861;48.808;9.006;2023-09-19T03:25:13;96848.09;;;18.27;80.62
41703;BME280;861;48.808;9.006;2023-09-19T03:27:41;96855.13;;;18.28;80.77
41703;BME280;861;48.808;9.006;2023-09-19T03:30:08;96847.09;;;18.34;80.26
41703;BME280;861;48.808;9.006;2023-09-19T03:32:36;96853.63;;;18.40;80.03
41703;BME280;861;48.808;9.006;2023-09-19T03:35:05;96848.63;;;18.35;80.36
41703;BME280;861;48.808;9.006;2023-09-19T03:37:32;96853.38;;;18.34;80.35
41703;BME280;861;48.808;9.006;2023-09-19T03:40:00;96848.75;;;18.31;80.28
41703;BME280;861;48.808;9.006;2023-09-19T03:42:31;96855.03;;;18.19;80.84
41703;BME280;861;48.808;9.006;2023-09-19T03:44:58;96851.50;;;18.31;80.58
41703;BME280;861;48.808;9.006;2023-09-19T03:47:27;96848.97;;;18.37;79.84
41703;BME280;861;48.808;9.006;2023-09-19T03:49:53;96853.53;;;18.56;80.13
41703;BME280;861;48.808;9.006;2023-09-19T03:52:20;96853.75;;;19.08;78.24
41703;BME280;861;48.808;9.006;2023-09-19T03:54:46;96865.09;;;18.76;79.33
41703;BME280;861;48.808;9.006;2023-09-19T03:57:13;96865.28;;;18.31;81.91
41703;BME280;861;48.808;9.006;2023-09-19T03:59:42;96863.63;;;18.21;83.30
41703;BME280;861;48.808;9.006;2023-09-19T04:02:12;96857.25;;;18.24;83.15
41703;BME280;861;48.808;9.006;2023-09-19T04:04:49;96854.03;;;18.26;83.18
41703;BME280;861;48.808;9.006;2023-09-19T04:07:17;96859.59;;;18.51;81.60
41703;BME280;861;48.808;9.006;2023-09-19T04:09:45;96856.91;;;18.35;81.72
41703;BME280;861;48.808;9.006;2023-09-19T04:12:12;96849.84;;;18.21;82.33
41703;BME280;861;48.808;9.006;2023-09-19T04:14:39;96849.97;;;18.30;82.28
41703;BME280;861;48.808;9.006;2023-09-19T04:17:05;96860.75;;;18.38;81.82
41703;BME280;861;48.808;9.006;2023-09-19T04:19:32;96857.88;;;18.16;83.25
41703;BME280;861;48.808;9.006;2023-09-19T04:21:58;96858.44;;;18.36;82.70
41703;BME280;861;48.808;9.006;2023-09-19T04:24:25;96862.56;;;18.44;82.17
41703;BME280;861;48.808;9.006;2023-09-19T04:26:51;96855.16;;;18.41;82.45
41703;BME280;861;48.808;9.006;2023-09-19T04:29:18;96864.13;;;18.45;82.81
41703;BME280;861;48.808;9.006;2023-09-19T04:31:46;96863.34;;;18.57;82.40
41703;BME280;861;48.808;9.006;2023-09-19T04:34:13;96871.16;;;18.84;80.35
41703;BME280;861;48.808;9.006;2023-09-19T04:36:43;96872.47;;;18.79;80.03
41703;BME280;861;48.808;9.006;2023-09-19T04:39:11;96874.81;;;18.81;80.25
41703;BME280;861;48.808;9.006;2023-09-19T04:41:39;96879.88;;;18.82;80.32
41703;BME280;861;48.808;9.006;2023-09-19T04:44:08;96884.75;;;18.78;80.49
41703;BME280;861;48.808;9.006;2023-09-19T04:46:35;96896.44;;;18.82;81.17
41703;BME280;861;48.808;9.006;2023-09-19T04:49:02;96893.22;;;18.71;82.21
41703;BME280;861;48.808;9.006;2023-09-19T04:51:29;96896.88;;;18.56;83.67
41703;BME280;861;48.808;9.006;2023-09-19T04:54:00;96894.31;;;18.49;84.10
41703;BME280;861;48.808;9.006;2023-09-19T04:56:27;96898.50;;;18.53;83.92
41703;BME280;861;48.808;9.006;2023-09-19T04:58:55;96905.59;;;18.54;84.16
41703;BME280;861;48.808;9.006;2023-09-19T05:01:22;96911.75;;;18.71;83.60
41703;BME280;861;48.808;9.006;2023-09-19T05:03:49;96913.22;;;18.88;82.91
41703;BME280;861;48.808;9.006;2023-09-19T05:06:20;96917.25;;;18.96;82.91
41703;BME280;861;48.808;9.006;2023-09-19T05:08:48;96917.47;;;19.14;82.13
41703;BME280;861;48.808;9.006;2023-09-19T05:11:19;96924.88;;;19.29;81.55
41703;BME280;861;48.808;9.006;2023-09-19T05:13:48;96931.94;;;19.30;80.65
41703;BME280;861;48.808;9.006;2023-09-19T05:16:19;96934.25;;;18.94;82.96
41703;BME280;861;48.808;9.006;2023-09-19T05:18:46;96930.06;;;18.77;82.18
41703;BME280;861;48.808;9.006;2023-09-19T05:21:12;96924.47;;;18.81;81.46
41703;BME280;861;48.808;9.006;2023-09-19T05:23:39;96938.31;;;18.40;82.95
41703;BME280;861;48.808;9.006;2023-09-19T05:26:05;96935.53;;;18.27;84.14
41703;BME280;861;48.808;9.006;2023-09-19T05:28:32;96933.38;;;18.18;84.54
41703;BME280;861;48.808;9.006;2023-09-19T05:31:03;96935.16;;;18.25;83.87
41703;BME280;861;48.808;9.006;2023-09-19T05:33:31;96932.28;;;18.16;84.62
41703;BME280;861;48.808;9.006;2023-09-19T05:35:58;96933.69;;;18.08;86.07
41703;BME280;861;48.808;9.006;2023-09-19T05:38:24;96940.97;;;18.02;85.37
41703;BME280;861;48.808;9.006;2023-09-19T05:40:54;96945.84;;;17.82;86.32
41703;BME280;861;48.808;9.006;2023-09-19T05:43:20;96949.72;;;17.84;86.99
41703;BME280;861;48.808;9.006;2023-09-19T05:45:47;96961.59;;;17.81;87.18
41703;BME280;861;48.808;9.006;2023-09-19T05:48:15;96964.22;;;17.72;87.73
41703;BME280;861;48.808;9.006;2023-09-19T05:50:44;96984.00;;;17.67;87.73
41703;BME280;861;48.808;9.006;2023-09-19T05:53:13;96984.53;;;17.62;87.00
41703;BME280;861;48.808;9.006;2023-09-19T05:55:41;96986.78;;;17.51;86.58
41703;BME280;861;48.808;9.006;2023-09-19T05:58:08;96987.56;;;17.52;86.41
41703;BME280;861;48.808;9.006;2023-09-19T06:00:36;96985.03;;;17.41;86.89
41703;BME280;861;48.808;9.006;2023-09-19T06:03:03;96994.97;;;17.55;86.39
41703;BME280;861;48.808;9.006;2023-09-19T06:05:29;96986.94;;;17.28;86.87
41703;BME280;861;48.808;9.006;2023-09-19T06:07:59;96990.66;;;17.38;86.54
41703;BME280;861;48.808;9.006;2023-09-19T06:10:27;96990.44;;;17.29;86.82
41703;BME280;861;48.808;9.006;2023-09-19T06:12:55;97001.47;;;17.29;87.59
41703;BME280;861;48.808;9.006;2023-09-19T06:15:24;96995.19;;;17.12;88.81
41703;BME280;861;48.808;9.006;2023-09-19T06:17:54;96992.59;;;17.21;88.12
41703;BME280;861;48.808;9.006;2023-09-19T06:20:23;96989.78;;;17.25;87.94
41703;BME280;861;48.808;9.006;2023-09-19T06:22:50;96995.13;;;17.32;86.74
41703;BME280;861;48.808;9.006;2023-09-19T06:25:19;96990.72;;;17.18;86.31
41703;BME280;861;48.808;9.006;2023-09-19T06:27:52;96987.53;;;17.20;87.45
41703;BME280;861;48.808;9.006;2023-09-19T06:30:22;96993.22;;;17.13;87.65
41703;BME280;861;48.808;9.006;2023-09-19T06:32:57;96991.94;;;17.17;86.85
41703;BME280;861;48.808;9.006;2023-09-19T06:35:26;96997.00;;;17.19;87.62
41703;BME280;861;48.808;9.006;2023-09-19T06:37:55;97001.97;;;17.08;87.58
41703;BME280;861;48.808;9.006;2023-09-19T06:40:24;96997.94;;;17.12;85.94
41703;BME280;861;48.808;9.006;2023-09-19T06:42:54;97006.13;;;17.32;86.96
41703;BME280;861;48.808;9.006;2023-09-19T06:45:22;97007.00;;;17.45;84.78
41703;BME280;861;48.808;9.006;2023-09-19T06:47:52;96999.06;;;17.31;85.28
41703;BME280;861;48.808;9.006;2023-09-19T06:50:20;97002.25;;;17.29;86.22
41703;BME280;861;48.808;9.006;2023-09-19T06:52:54;96999.22;;;17.08;86.91
41703;BME280;861;48.808;9.006;2023-09-19T06:55:23;97015.22;;;17.29;86.60
41703;BME280;861;48.808;9.006;2023-09-19T06:57:52;97015.31;;;17.41;86.44
41703;BME280;861;48.808;9.006;2023-09-19T07:00:20;97020.56;;;17.36;85.86
41703;BME280;861;48.808;9.006;2023-09-19T07:03:02;97023.66;;;17.22;88.07
41703;BME280;861;48.808;9.006;2023-09-19T07:05:37;97024.34;;;17.26;86.67
41703;BME280;861;48.808;9.006;2023-09-19T07:08:10;97033.91;;;17.37;85.41
41703;BME280;861;48.808;9.006;2023-09-19T07:10:43;97034.03;;;17.50;84.96
41703;BME280;861;48.808;9.006;2023-09-19T07:13:15;97035.88;;;17.21;85.35
41703;BME280;861;48.808;9.006;2023-09-19T07:15:44;97038.63;;;17.21;86.95
41703;BME280;861;48.808;9.006;2023-09-19T07:18:17;97034.72;;;17.02;87.23
41703;BME280;861;48.808;9.006;2023-09-19T07:20:45;97045.16;;;17.27;87.18
41703;BME280;861;48.808;9.006;2023-09-19T07:23:20;97042.63;;;17.52;84.66
41703;BME280;861;48.808;9.006;2023-09-19T07:25:49;97048.22;;;17.48;84.43
41703;BME280;861;48.808;9.006;2023-09-19T07:28:16;97053.72;;;17.48;84.61
41703;BME280;861;48.808;9.006;2023-09-19T07:30:43;97054.84;;;17.51;84.05
41703;BME280;861;48.808;9.006;2023-09-19T07:33:10;97060.13;;;17.42;84.85
41703;BME280;861;48.808;9.006;2023-09-19T07:35:40;97068.28;;;17.65;83.66
41703;BME280;861;48.808;9.006;2023-09-19T07:38:08;97065.59;;;17.61;83.71
41703;BME280;861;48.808;9.006;2023-09-19T07:40:37;97063.38;;;17.56;85.26
41703;BME280;861;48.808;9.006;2023-09-19T07:43:04;97069.47;;;17.80;84.10
41703;BME280;861;48.808;9.006;2023-09-19T07:45:32;97061.72;;;17.75;84.52
41703;BME280;861;48.808;9.006;2023-09-19T07:47:59;97070.69;;;17.79;84.34
41703;BME280;861;48.808;9.006;2023-09-19T07:50:32;97074.03;;;17.86;84.48
41703;BME280;861;48.808;9.006;2023-09-19T07:53:03;97071.00;;;17.97;85.22
41703;BME280;861;48.808;9.006;2023-09-19T07:55:31;97068.75;;;18.08;84.64
41703;BME280;861;48.808;9.006;2023-09-19T07:58:00;97062.75;;;18.25;83.88
41703;BME280;861;48.808;9.006;2023-09-19T08:00:27;97076.16;;;18.56;81.53
41703;BME280;861;48.808;9.006;2023-09-19T08:02:53;97077.84;;;18.66;80.73
41703;BME280;861;48.808;9.006;2023-09-19T08:05:20;97081.44;;;18.63;82.15
41703;BME280;861;48.808;9.006;2023-09-19T08:07:47;97080.59;;;18.66;82.04
41703;BME280;861;48.808;9.006;2023-09-19T08:10:16;97078.63;;;18.79;81.21
41703;BME280;861;48.808;9.006;2023-09-19T08:12:48;97085.28;;;18.94;81.40
41703;BME280;861;48.808;9.006;2023-09-19T08:15:20;97089.63;;;19.07;80.01
41703;BME280;861;48.808;9.006;2023-09-19T08:17:48;97091.53;;;19.35;80.02
41703;BME280;861;48.808;9.006;2023-09-19T08:20:16;97096.19;;;19.51;77.75
41703;BME280;861;48.808;9.006;2023-09-19T08:22:48;97084.81;;;19.61;75.55
41703;BME280;861;48.808;9.006;2023-09-19T08:25:24;97096.75;;;19.58;74.41
41703;BME280;861;48.808;9.006;2023-09-19T08:27:51;97099.38;;;19.49;76.78
41703;BME280;861;48.808;9.006;2023-09-19T08:30:20;97098.94;;;19.89;72.38
41703;BME280;861;48.808;9.006;2023-09-19T08:32:59;97088.63;;;19.89;70.32
41703;BME280;861;48.808;9.006;2023-09-19T08:35:28;97102.81;;;19.53;71.61
41703;BME280;861;48.808;9.006;2023-09-19T08:37:55;97106.72;;;19.15;73.33
41703;BME280;861;48.808;9.006;2023-09-19T08:40:26;97105.00;;;19.21;74.08
41703;BME280;861;48.808;9.006;2023-09-19T08:42:57;97112.72;;;19.26;73.25
41703;BME280;861;48.808;9.006;2023-09-19T08:45:27;97103.66;;;19.25;72.94
41703;BME280;861;48.808;9.006;2023-09-19T08:48:17;97114.91;;;19.06;72.98
41703;BME280;861;48.808;9.006;2023-09-19T08:51:02;97109.63;;;19.24;71.40
41703;BME280;861;48.808;9.006;2023-09-19T08:54:10;97109.09;;;19.29;72.33
41703;BME280;861;48.808;9.006;2023-09-19T08:56:48;97108.88;;;19.73;70.05
41703;BME280;861;48.808;9.006;2023-09-19T08:59:22;97110.09;;;19.85;69.35
41703;BME280;861;48.808;9.006;2023-09-19T09:04:26;97113.25;;;20.09;68.63
41703;BME280;861;48.808;9.006;2023-09-19T09:06:54;97117.53;;;20.35;66.85
41703;BME280;861;48.808;9.006;2023-09-19T09:09:22;97108.06;;;20.23;67.68
41703;BME280;861;48.808;9.006;2023-09-19T09:11:51;97117.97;;;20.33;65.19
41703;BME280;861;48.808;9.006;2023-09-19T09:14:21;97123.53;;;20.21;64.30
41703;BME280;861;48.808;9.006;2023-09-19T09:16:48;97124.78;;;19.95;65.64
41703;BME280;861;48.808;9.006;2023-09-19T09:19:15;97129.00;;;19.74;65.38
41703;BME280;861;48.808;9.006;2023-09-19T09:21:51;97123.03;;;19.50;66.11
41703;BME280;861;48.808;9.006;2023-09-19T09:24:31;97130.22;;;19.48;65.31
41703;BME280;861;48.808;9.006;2023-09-19T09:27:00;97118.72;;;19.74;64.38
41703;BME280;861;48.808;9.006;2023-09-19T09:29:42;97122.34;;;19.84;63.38
41703;BME280;861;48.808;9.006;2023-09-19T09:32:25;97125.03;;;19.50;67.70
41703;BME280;861;48.808;9.006;2023-09-19T09:35:00;97131.09;;;19.83;64.22
41703;BME280;861;48.808;9.006;2023-09-19T09:37:29;97124.78;;;20.07;64.58
41703;BME280;861;48.808;9.006;2023-09-19T09:42:45;97118.94;;;19.93;63.68
41703;BME280;861;48.808;9.006;2023-09-19T09:45:25;97123.03;;;19.75;64.82
41703;BME280;861;48.808;9.006;2023-09-19T09:47:55;97119.91;;;19.99;65.02
41703;BME280;861;48.808;9.006;2023-09-19T09:50:32;97127.00;;;20.00;64.34
41703;BME280;861;48.808;9.006;2023-09-19T09:53:30;97121.69;;;19.93;63.60
41703;BME280;861;48.808;9.006;2023-09-19T09:56:10;97127.44;;;19.86;64.57
41703;BME280;861;48.808;9.006;2023-09-19T09:58:52;97125.41;;;20.11;63.95
41703;BME280;861;48.808;9.006;2023-09-19T10:01:22;97133.72;;;20.11;63.34
41703;BME280;861;48.808;9.006;2023-09-19T10:03:58;97125.47;;;19.73;66.03
41703;BME280;861;48.808;9.006;2023-09-19T10:06:26;97125.13;;;19.59;66.52
41703;BME280;861;48.808;9.006;2023-09-19T10:09:10;97123.56;;;19.83;65.02
41703;BME280;861;48.808;9.006;2023-09-19T10:12:13;97122.78;;;19.95;64.60
41703;BME280;861;48.808;9.006;2023-09-19T10:14:45;97118.28;;;19.89;63.66
41703;BME280;861;48.808;9.006;2023-09-19T10:17:19;97121.22;;;20.19;63.31
41703;BME280;861;48.808;9.006;2023-09-19T10:19:57;97114.28;;;20.15;64.33
41703;BME280;861;48.808;9.006;2023-09-19T10:22:28;97104.00;;;20.15;62.74
41703;BME280;861;48.808;9.006;2023-09-19T10:25:00;97105.97;;;20.49;62.80
41703;BME280;861;48.808;9.006;2023-09-19T10:27:31;97104.88;;;20.46;63.63
41703;BME280;861;48.808;9.006;2023-09-19T10:30:07;97104.19;;;20.76;61.00
41703;BME280;861;48.808;9.006;2023-09-19T10:32:40;97096.31;;;21.18;60.72
41703;BME280;861;48.808;9.006;2023-09-19T10:35:09;97094.72;;;21.39;58.97
41703;BME280;861;48.808;9.006;2023-09-19T10:37:43;97096.34;;;21.88;55.56
41703;BME280;861;48.808;9.006;2023-09-19T10:40:17;97109.44;;;21.97;58.70
41703;BME280;861;48.808;9.006;2023-09-19T10:42:49;97099.03;;;22.28;54.61
41703;BME280;861;48.808;9.006;2023-09-19T10:45:18;97095.47;;;22.18;54.95
41703;BME280;861;48.808;9.006;2023-09-19T10:47:46;97114.38;;;21.93;55.20
41703;BME280;861;48.808;9.006;2023-09-19T10:50:24;97112.84;;;22.01;56.60
41703;BME280;861;48.808;9.006;2023-09-19T10:52:55;97105.59;;;22.03;56.17
41703;BME280;861;48.808;9.006;2023-09-19T10:55:32;97103.78;;;22.09;53.10
41703;BME280;861;48.808;9.006;2023-09-19T10:58:02;97110.44;;;21.72;55.31
41703;BME280;861;48.808;9.006;2023-09-19T11:00:58;97107.19;;;21.74;56.73
41703;BME280;861;48.808;9.006;2023-09-19T11:03:39;97110.94;;;21.80;55.79
41703;BME280;861;48.808;9.006;2023-09-19T11:06:18;97112.38;;;21.93;54.28
41703;BME280;861;48.808;9.006;2023-09-19T11:08:56;97106.38;;;21.95;56.80
41703;BME280;861;48.808;9.006;2023-09-19T11:11:39;97099.94;;;22.16;55.44
41703;BME280;861;48.808;9.006;2023-09-19T11:23:19;97083.88;;;23.61;50.44
41703;BME280;861;48.808;9.006;2023-09-19T11:25:49;97078.81;;;23.59;50.47
41703;BME280;861;48.808;9.006;2023-09-19T11:30:52;97091.13;;;23.35;50.21
41703;BME280;861;48.808;9.006;2023-09-19T11:33:30;97085.47;;;22.93;50.64
41703;BME280;861;48.808;9.006;2023-09-19T11:36:14;97092.28;;;22.74;48.40
41703;BME280;861;48.808;9.006;2023-09-19T11:46:55;97074.38;;;22.39;51.66
41703;BME280;861;48.808;9.006;2023-09-19T11:49:30;97074.56;;;22.62;51.55
41703;BME280;861;48.808;9.006;2023-09-19T11:52:05;97074.63;;;23.04;50.89
41703;BME280;861;48.808;9.006;2023-09-19T11:54:33;97066.56;;;23.24;50.96
41703;BME280;861;48.808;9.006;2023-09-19T11:57:03;97068.97;;;22.90;52.01
41703;BME280;861;48.808;9.006;2023-09-19T11:59:31;97066.72;;;23.21;51.80
41703;BME280;861;48.808;9.006;2023-09-19T12:02:07;97066.47;;;22.92;50.47
41703;BME280;861;48.808;9.006;2023-09-19T12:04:40;97062.19;;;22.82;52.60
41703;BME280;861;48.808;9.006;2023-09-19T12:07:14;97059.97;;;23.13;52.69
41703;BME280;861;48.808;9.006;2023-09-19T12:10:05;97063.16;;;23.71;50.25
41703;BME280;861;48.808;9.006;2023-09-19T12:12:35;97059.19;;;23.86;50.10
41703;BME280;861;48.808;9.006;2023-09-19T12:15:02;97054.22;;;23.99;50.87
41703;BME280;861;48.808;9.006;2023-09-19T12:17:41;97054.00;;;24.50;49.21
41703;BME280;861;48.808;9.006;2023-09-19T12:20:09;97048.81;;;24.58;49.36
41703;BME280;861;48.808;9.006;2023-09-19T12:22:47;97050.03;;;24.80;48.19
41703;BME280;861;48.808;9.006;2023-09-19T12:25:17;97044.91;;;24.64;47.43
41703;BME280;861;48.808;9.006;2023-09-19T12:27:49;97044.97;;;24.55;47.91
41703;BME280;861;48.808;9.006;2023-09-19T12:30:19;97045.31;;;24.10;50.73
41703;BME280;861;48.808;9.006;2023-09-19T12:32:53;97038.16;;;24.18;51.05
41703;BME280;861;48.808;9.006;2023-09-19T12:35:33;97045.22;;;24.43;49.72
41703;BME280;861;48.808;9.006;2023-09-19T12:38:03;97041.03;;;24.47;49.16
41703;BME280;861;48.808;9.006;2023-09-19T12:40:31;97038.41;;;24.67;48.41
41703;BME280;861;48.808;9.006;2023-09-19T12:43:01;97032.75;;;24.91;47.33
41703;BME280;861;48.808;9.006;2023-09-19T12:45:32;97035.91;;;24.98;47.10
41703;BME280;861;48.808;9.006;2023-09-19T12:48:25;97027.63;;;25.33;45.49
41703;BME280;861;48.808;9.006;2023-09-19T12:51:10;97031.47;;;25.21;46.39
41703;BME280;861;48.808;9.006;2023-09-19T12:53:44;97023.91;;;25.07;49.25
41703;BME280;861;48.808;9.006;2023-09-19T12:56:17;97030.78;;;25.40;50.12
41703;BME280;861;48.808;9.006;2023-09-19T12:58:56;97016.84;;;25.75;47.22
41703;BME280;861;48.808;9.006;2023-09-19T13:01:32;97024.47;;;25.75;45.33
41703;BME280;861;48.808;9.006;2023-09-19T13:04:19;97023.38;;;25.87;44.88
41703;BME280;861;48.808;9.006;2023-09-19T13:06:56;97014.91;;;26.16;45.32
41703;BME280;861;48.808;9.006;2023-09-19T13:09:28;97015.72;;;26.42;46.16
41703;BME280;861;48.808;9.006;2023-09-19T13:12:01;97020.38;;;26.50;45.25
41703;BME280;861;48.808;9.006;2023-09-19T13:14:31;97013.94;;;26.44;42.88
41703;BME280;861;48.808;9.006;2023-09-19T13:17:04;97020.09;;;25.88;45.42
41703;BME280;861;48.808;9.006;2023-09-19T13:19:52;97019.47;;;25.99;45.57
41703;BME280;861;48.808;9.006;2023-09-19T13:22:44;97007.28;;;26.36;46.04
41703;BME280;861;48.808;9.006;2023-09-19T13:25:25;97009.22;;;26.30;46.19
41703;BME280;861;48.808;9.006;2023-09-19T13:27:57;97017.22;;;26.43;45.12
41703;BME280;861;48.808;9.006;2023-09-19T13:30:27;97010.25;;;26.53;44.68
41703;BME280;861;48.808;9.006;2023-09-19T13:33:10;97011.22;;;26.70;42.90
41703;BME280;861;48.808;9.006;2023-09-19T13:35:39;97010.94;;;26.68;42.10
41703;BME280;861;48.808;9.006;2023-09-19T13:38:07;97015.28;;;26.49;43.98
41703;BME280;861;48.808;9.006;2023-09-19T13:40:39;97002.34;;;26.51;42.55
41703;BME280;861;48.808;9.006;2023-09-19T13:43:08;97000.88;;;26.56;43.08
41703;BME280;861;48.808;9.006;2023-09-19T13:45:35;97007.41;;;26.27;44.91
41703;BME280;861;48.808;9.006;2023-09-19T13:48:02;96999.19;;;26.18;45.17
41703;BME280;861;48.808;9.006;2023-09-19T13:50:29;97005.88;;;26.26;45.25
41703;BME280;861;48.808;9.006;2023-09-19T13:52:57;96997.06;;;26.33;45.35
41703;BME280;861;48.808;9.006;2023-09-19T13:55:26;96999.03;;;26.27;44.36
41703;BME280;861;48.808;9.006;2023-09-19T13:57:53;96997.97;;;26.45;43.68
41703;BME280;861;48.808;9.006;2023-09-19T14:00:23;96987.44;;;26.34;45.16
41703;BME280;861;48.808;9.006;2023-09-19T14:02:49;96984.69;;;26.60;44.71
41703;BME280;861;48.808;9.006;2023-09-19T14:05:17;96990.94;;;26.75;45.03
41703;BME280;861;48.808;9.006;2023-09-19T14:07:45;96984.84;;;27.02;42.63
41703;BME280;861;48.808;9.006;2023-09-19T14:10:12;96986.28;;;26.92;42.04
41703;BME280;861;48.808;9.006;2023-09-19T14:12:40;96980.38;;;26.84;42.77
41703;BME280;861;48.808;9.006;2023-09-19T14:15:11;96996.09;;;26.62;42.73
41703;BME280;861;48.808;9.006;2023-09-19T14:17:41;96990.94;;;26.29;42.57
41703;BME280;861;48.808;9.006;2023-09-19T14:20:13;96986.88;;;25.90;44.10